Time;durP1;ratioP1;P1;durP2;ratioP2;P2;SDS_P1;SDS_P2;PMS_P1;PMS_P2;Temp;Humidity;BMP_temperature;BMP_pressure;BME280_temperature;BME280_humidity;BME280_pressure;Samples;Min_cycle;Max_cycle;Signal;HPM_P1;HPM_P2
2023/01/18 00:00:28;;;;;;;9.13;8.52;;;;;;;;;;5025186;28;20057;-51
2023/01/18 00:02:54;;;;;;;8.48;7.93;;;;;;;;;;5025095;28;20029;-50
2023/01/18 00:05:23;;;;;;;10.00;9.20;;;;;;;;;;5025265;28;20044;-53
2023/01/18 00:07:49;;;;;;;8.85;8.25;;;;;;;;;;5026664;28;20040;-51
2023/01/18 00:10:15;;;;;;;9.48;8.77;;;;;;;;;;5024231;28;20147;-50
2023/01/18 00:12:40;;;;;;;8.63;8.02;;;;;;;;;;5024385;28;20034;-53
2023/01/18 00:15:06;;;;;;;8.82;8.23;;;;;;;;;;5023328;28;20042;-53
2023/01/18 00:17:32;;;;;;;9.43;8.68;;;;;;;;;;5024322;28;20041;-53
2023/01/18 00:19:57;;;;;;;8.45;7.88;;;;;;;;;;5024217;28;20044;-53
2023/01/18 00:22:23;;;;;;;8.70;8.10;;;;;;;;;;5023758;28;20033;-53
2023/01/18 00:24:48;;;;;;;8.60;8.00;;;;;;;;;;5026674;28;20025;-52
2023/01/18 00:27:13;;;;;;;7.68;7.18;;;;;;;;;;5024594;28;20359;-54
2023/01/18 00:29:39;;;;;;;8.35;7.78;;;;;;;;;;5025386;28;20490;-54
2023/01/18 00:32:04;;;;;;;7.78;7.28;;;;;;;;;;5028275;28;20083;-51
2023/01/18 00:34:30;;;;;;;8.95;8.35;;;;;;;;;;5027162;28;20034;-53
2023/01/18 00:36:55;;;;;;;9.20;8.60;;;;;;;;;;5026059;28;20052;-52
2023/01/18 00:39:21;;;;;;;7.50;7.00;;;;;;;;;;5024850;28;20039;-54
2023/01/18 00:44:30;;;;;;;9.52;8.82;;;;;;;;;;5026017;28;20559;-53
2023/01/18 00:46:56;;;;;;;8.80;8.20;;;;;;;;;;5026216;28;20049;-52
2023/01/18 00:49:22;;;;;;;8.40;7.85;;;;;;;;;;5024049;28;20092;-51
2023/01/18 00:51:47;;;;;;;9.45;8.82;;;;;;;;;;5025590;28;20037;-50
2023/01/18 00:54:12;;;;;;;8.50;7.90;;;;;;;;;;5024314;28;20033;-53
2023/01/18 00:56:38;;;;;;;8.93;8.32;;;;;;;;;;5025084;28;20379;-51
2023/01/18 00:59:03;;;;;;;9.10;8.50;;;;;;;;;;5024594;28;20375;-54
2023/01/18 01:01:29;;;;;;;8.52;8.02;;;;;;;;;;5024822;28;20069;-52
2023/01/18 01:06:44;;;;;;;8.90;8.27;;;;;;;;;;5024206;28;20034;-53
2023/01/18 01:09:29;;;;;;;9.25;8.65;;;;;;;;;;5023573;28;20033;-54
2023/01/18 01:26:12;;;;;;;8.65;8.05;;;;;;;;;;5025634;28;20041;-52
2023/01/18 01:28:39;;;;;;;8.40;7.80;;;;;;;;;;5025539;28;20521;-54
2023/01/18 01:31:06;;;;;;;8.85;8.15;;;;;;;;;;5023489;28;20364;-54
2023/01/18 01:33:33;;;;;;;8.45;7.85;;;;;;;;;;5023602;28;20511;-55
2023/01/18 01:36:01;;;;;;;8.32;7.72;;;;;;;;;;5025189;28;20790;-50
2023/01/18 01:38:27;;;;;;;7.93;7.43;;;;;;;;;;5024198;28;20048;-52
2023/01/18 01:41:09;;;;;;;8.20;7.70;;;;;;;;;;5023536;28;20033;-52
2023/01/18 01:43:55;;;;;;;8.52;7.93;;;;;;;;;;5025490;28;20037;-52
2023/01/18 01:46:36;;;;;;;8.90;8.30;;;;;;;;;;5024454;28;20542;-54
2023/01/18 01:49:12;;;;;;;8.40;7.80;;;;;;;;;;5023615;28;20045;-54
2023/01/18 01:51:44;;;;;;;8.35;7.85;;;;;;;;;;5024795;28;20137;-50
2023/01/18 01:54:15;;;;;;;8.45;7.85;;;;;;;;;;5024070;28;20033;-54
2023/01/18 01:56:42;;;;;;;7.93;7.43;;;;;;;;;;5024152;28;20037;-53
2023/01/18 01:59:09;;;;;;;8.07;7.57;;;;;;;;;;5024503;28;20499;-52
2023/01/18 02:01:36;;;;;;;9.27;8.20;;;;;;;;;;5022470;28;20025;-54
2023/01/18 02:04:02;;;;;;;9.25;8.55;;;;;;;;;;5023359;28;20025;-53
2023/01/18 02:06:35;;;;;;;8.70;8.10;;;;;;;;;;5023419;28;20428;-52
2023/01/18 02:09:12;;;;;;;8.68;8.07;;;;;;;;;;5023909;28;20474;-52
2023/01/18 02:11:38;;;;;;;8.38;7.78;;;;;;;;;;5022980;28;20041;-54
2023/01/18 02:14:07;;;;;;;8.32;7.72;;;;;;;;;;5024089;28;20400;-53
2023/01/18 02:16:52;;;;;;;8.50;7.97;;;;;;;;;;5023120;28;20142;-54
2023/01/18 02:19:54;;;;;;;9.48;8.88;;;;;;;;;;5021169;28;20037;-54
2023/01/18 02:22:53;;;;;;;8.70;8.10;;;;;;;;;;5023105;28;20467;-54
2023/01/18 02:25:37;;;;;;;8.20;7.70;;;;;;;;;;5022784;28;20174;-54
2023/01/18 02:28:08;;;;;;;9.35;8.55;;;;;;;;;;5024582;28;20039;-54
2023/01/18 02:30:59;;;;;;;7.80;7.30;;;;;;;;;;5022561;28;20037;-54
2023/01/18 02:33:56;;;;;;;8.13;7.63;;;;;;;;;;5021951;28;20056;-51
2023/01/18 02:36:33;;;;;;;8.77;8.18;;;;;;;;;;5022578;28;20340;-54
2023/01/18 02:39:05;;;;;;;8.82;8.23;;;;;;;;;;5023412;28;20042;-54
2023/01/18 02:47:16;;;;;;;8.90;8.30;;;;;;;;;;5021458;28;20414;-54
2023/01/18 02:49:42;;;;;;;9.05;8.45;;;;;;;;;;5024153;28;20033;-51
2023/01/18 02:52:40;;;;;;;8.82;8.13;;;;;;;;;;5024616;28;20112;-54
2023/01/18 02:55:16;;;;;;;8.40;7.80;;;;;;;;;;5023117;28;20106;-54
2023/01/18 02:57:42;;;;;;;8.38;7.78;;;;;;;;;;5024053;28;20033;-54
2023/01/18 03:00:10;;;;;;;8.18;7.68;;;;;;;;;;5024101;28;20033;-53
2023/01/18 03:02:37;;;;;;;8.10;7.60;;;;;;;;;;5022899;28;20434;-52
2023/01/18 03:05:02;;;;;;;21.25;8.25;;;;;;;;;;5023694;28;20087;-53
2023/01/18 03:07:31;;;;;;;8.57;7.97;;;;;;;;;;5020392;28;20744;-54
2023/01/18 03:10:00;;;;;;;8.35;7.85;;;;;;;;;;5023181;28;20577;-53
2023/01/18 03:12:47;;;;;;;8.43;7.90;;;;;;;;;;5022677;28;20233;-51
2023/01/18 03:15:34;;;;;;;8.07;7.55;;;;;;;;;;5023711;28;20043;-53
2023/01/18 03:18:08;;;;;;;8.27;7.78;;;;;;;;;;5023610;28;20341;-53
2023/01/18 03:20:39;;;;;;;9.07;8.48;;;;;;;;;;5026396;28;20061;-53
2023/01/18 03:25:59;;;;;;;8.55;7.95;;;;;;;;;;5028124;28;20120;-53
2023/01/18 03:34:31;;;;;;;8.55;7.78;;;;;;;;;;5027909;28;20040;-53
2023/01/18 03:37:01;;;;;;;7.90;7.40;;;;;;;;;;5027757;28;20045;-53
2023/01/18 03:39:29;;;;;;;9.70;9.00;;;;;;;;;;5027112;28;20037;-53
2023/01/18 03:42:01;;;;;;;8.80;8.20;;;;;;;;;;5027633;28;20037;-53
2023/01/18 03:44:46;;;;;;;8.10;7.60;;;;;;;;;;5028306;28;20479;-52
2023/01/18 03:47:12;;;;;;;8.32;7.82;;;;;;;;;;5015970;28;20371;-53
2023/01/18 03:49:37;;;;;;;8.57;7.97;;;;;;;;;;5025727;28;20037;-54
2023/01/18 03:52:05;;;;;;;8.63;8.05;;;;;;;;;;5027676;28;20041;-54
2023/01/18 03:54:53;;;;;;;8.60;8.02;;;;;;;;;;5027653;28;20121;-51
2023/01/18 03:57:29;;;;;;;8.32;7.82;;;;;;;;;;5016450;28;20025;-52
2023/01/18 03:59:55;;;;;;;8.35;7.85;;;;;;;;;;5027723;28;20041;-52
2023/01/18 04:02:22;;;;;;;8.20;7.70;;;;;;;;;;5027038;28;20050;-51
2023/01/18 04:04:48;;;;;;;8.88;8.27;;;;;;;;;;5028373;28;20041;-53
2023/01/18 04:07:13;;;;;;;9.05;8.45;;;;;;;;;;5027058;28;20033;-52
2023/01/18 04:09:39;;;;;;;8.55;7.95;;;;;;;;;;5027267;28;20029;-52
2023/01/18 04:12:05;;;;;;;8.85;8.25;;;;;;;;;;5026957;28;20450;-52
2023/01/18 04:14:30;;;;;;;8.48;7.93;;;;;;;;;;5027520;28;20045;-52
2023/01/18 04:16:55;;;;;;;8.30;7.80;;;;;;;;;;5028063;28;20490;-53
2023/01/18 04:19:21;;;;;;;9.15;8.40;;;;;;;;;;5026343;28;20377;-53
2023/01/18 04:21:46;;;;;;;8.77;8.18;;;;;;;;;;5022853;28;20607;-54
2023/01/18 04:24:12;;;;;;;8.07;7.57;;;;;;;;;;5028194;28;20038;-54
2023/01/18 04:26:37;;;;;;;8.65;8.05;;;;;;;;;;5027335;28;20033;-54
2023/01/18 04:29:03;;;;;;;9.07;8.48;;;;;;;;;;5027191;28;20167;-53
2023/01/18 04:31:29;;;;;;;9.43;8.52;;;;;;;;;;5023532;28;20116;-54
2023/01/18 04:33:54;;;;;;;8.30;7.75;;;;;;;;;;5027747;28;20109;-52
2023/01/18 04:36:21;;;;;;;8.73;8.13;;;;;;;;;;5026220;28;20117;-52
2023/01/18 04:38:50;;;;;;;8.35;7.75;;;;;;;;;;5026745;28;20029;-52
2023/01/18 04:41:15;;;;;;;9.13;8.30;;;;;;;;;;5025755;28;20045;-52
2023/01/18 04:43:41;;;;;;;8.75;8.18;;;;;;;;;;5027349;28;20087;-52
2023/01/18 04:46:06;;;;;;;9.23;8.57;;;;;;;;;;5026237;28;20033;-52
2023/01/18 04:48:31;;;;;;;8.18;7.65;;;;;;;;;;5024919;28;20192;-53
2023/01/18 04:50:57;;;;;;;8.52;7.93;;;;;;;;;;5026091;28;20029;-53
2023/01/18 04:53:22;;;;;;;8.00;7.50;;;;;;;;;;5025370;28;20451;-53
2023/01/18 04:55:48;;;;;;;8.90;8.30;;;;;;;;;;5020982;28;20033;-50
2023/01/18 04:58:14;;;;;;;8.35;7.85;;;;;;;;;;5026701;28;20097;-51
2023/01/18 05:00:39;;;;;;;8.20;7.70;;;;;;;;;;5025286;28;21213;-52
2023/01/18 05:03:06;;;;;;;9.15;8.55;;;;;;;;;;5026775;28;20367;-54
2023/01/18 05:05:31;;;;;;;8.35;7.85;;;;;;;;;;5026833;28;20069;-53
2023/01/18 05:07:57;;;;;;;8.00;7.50;;;;;;;;;;5042666;28;20056;-53
2023/01/18 05:10:22;;;;;;;8.40;7.90;;;;;;;;;;5026625;28;20044;-54
2023/01/18 05:12:47;;;;;;;8.98;8.38;;;;;;;;;;5026867;28;20025;-53
2023/01/18 05:15:13;;;;;;;7.72;7.22;;;;;;;;;;5026489;28;20486;-53
2023/01/18 05:17:39;;;;;;;7.80;7.30;;;;;;;;;;5021564;28;20041;-51
2023/01/18 05:20:07;;;;;;;8.40;7.90;;;;;;;;;;5026573;28;20053;-54
2023/01/18 05:22:33;;;;;;;9.05;8.45;;;;;;;;;;5023766;28;20432;-53
2023/01/18 05:24:59;;;;;;;9.57;8.88;;;;;;;;;;5025703;28;20124;-54
2023/01/18 05:27:24;;;;;;;9.32;8.65;;;;;;;;;;5026344;28;20034;-52
2023/01/18 05:29:50;;;;;;;9.13;8.52;;;;;;;;;;5026671;28;20052;-52
2023/01/18 05:32:16;;;;;;;8.38;7.78;;;;;;;;;;5023093;28;20065;-53
2023/01/18 05:34:42;;;;;;;8.82;8.23;;;;;;;;;;5024990;28;20110;-54
2023/01/18 05:37:08;;;;;;;9.48;8.88;;;;;;;;;;5025003;28;20033;-54
2023/01/18 05:39:34;;;;;;;9.70;8.98;;;;;;;;;;5024995;28;20800;-51
2023/01/18 05:41:59;;;;;;;8.68;8.07;;;;;;;;;;5024186;28;20049;-54
2023/01/18 05:44:24;;;;;;;9.50;8.80;;;;;;;;;;5025698;28;20029;-53
2023/01/18 05:46:50;;;;;;;7.90;7.40;;;;;;;;;;5025516;28;20036;-53
2023/01/18 05:49:15;;;;;;;8.88;8.27;;;;;;;;;;5025967;28;20045;-53
2023/01/18 05:51:40;;;;;;;8.57;7.97;;;;;;;;;;5023474;28;20117;-52
2023/01/18 05:54:06;;;;;;;8.82;8.15;;;;;;;;;;5025571;28;20451;-53
2023/01/18 05:56:31;;;;;;;8.13;7.63;;;;;;;;;;5025596;28;20418;-52
2023/01/18 05:58:57;;;;;;;7.68;7.07;;;;;;;;;;5025701;28;20060;-55
2023/01/18 06:01:22;;;;;;;8.07;7.57;;;;;;;;;;5023689;28;20029;-55
2023/01/18 06:03:48;;;;;;;8.60;8.00;;;;;;;;;;5025396;28;20453;-55
2023/01/18 06:06:15;;;;;;;8.00;7.50;;;;;;;;;;5026386;28;20030;-55
2023/01/18 06:08:41;;;;;;;7.95;7.45;;;;;;;;;;5024049;28;20089;-55
2023/01/18 06:11:06;;;;;;;8.70;8.05;;;;;;;;;;5024892;28;20407;-55
2023/01/18 06:13:32;;;;;;;8.63;8.05;;;;;;;;;;5025485;28;20781;-52
2023/01/18 06:15:59;;;;;;;8.25;7.75;;;;;;;;;;5024758;28;20044;-54
2023/01/18 06:18:26;;;;;;;8.63;8.02;;;;;;;;;;5024773;28;20075;-52
2023/01/18 06:20:58;;;;;;;8.68;8.07;;;;;;;;;;5024831;28;20076;-54
2023/01/18 06:23:24;;;;;;;8.63;8.02;;;;;;;;;;5024577;28;20044;-52
2023/01/18 06:25:50;;;;;;;7.80;7.30;;;;;;;;;;5037468;28;20033;-54
2023/01/18 06:28:16;;;;;;;8.32;7.82;;;;;;;;;;5025553;28;20033;-55
2023/01/18 06:30:41;;;;;;;8.55;7.95;;;;;;;;;;5024138;28;20037;-53
2023/01/18 06:33:08;;;;;;;7.75;7.25;;;;;;;;;;5025081;28;20590;-56
2023/01/18 06:35:34;;;;;;;8.10;7.60;;;;;;;;;;5024989;28;20033;-56
2023/01/18 06:38:01;;;;;;;7.97;7.47;;;;;;;;;;5025478;28;20044;-53
2023/01/18 06:40:26;;;;;;;8.07;7.47;;;;;;;;;;5024425;28;20042;-52
2023/01/18 06:42:52;;;;;;;9.15;8.57;;;;;;;;;;5024497;28;20034;-54
2023/01/18 06:45:20;;;;;;;8.10;7.53;;;;;;;;;;5025628;28;20029;-54
2023/01/18 06:47:46;;;;;;;8.27;7.78;;;;;;;;;;5024530;28;20037;-53
2023/01/18 06:50:12;;;;;;;8.63;8.10;;;;;;;;;;5024399;28;20084;-52
2023/01/18 06:52:37;;;;;;;8.93;8.32;;;;;;;;;;5023468;28;20113;-55
2023/01/18 06:55:03;;;;;;;8.00;7.47;;;;;;;;;;5028125;28;20716;-55
2023/01/18 06:57:28;;;;;;;7.95;7.45;;;;;;;;;;5026692;28;20410;-53
2023/01/18 06:59:54;;;;;;;7.97;7.47;;;;;;;;;;5027763;28;20049;-55
2023/01/18 07:02:19;;;;;;;7.90;7.40;;;;;;;;;;5028072;28;20045;-52
2023/01/18 07:04:45;;;;;;;9.13;8.52;;;;;;;;;;5027286;28;20038;-51
2023/01/18 07:07:12;;;;;;;7.93;7.43;;;;;;;;;;5027304;28;20033;-51
2023/01/18 07:09:38;;;;;;;8.25;7.75;;;;;;;;;;5027595;28;20527;-54
2023/01/18 07:12:03;;;;;;;8.40;7.90;;;;;;;;;;5028490;28;20037;-51
2023/01/18 07:14:29;;;;;;;7.78;7.28;;;;;;;;;;5028050;28;20407;-52
2023/01/18 07:16:54;;;;;;;7.85;7.35;;;;;;;;;;5028955;28;20029;-53
2023/01/18 07:19:19;;;;;;;8.70;8.05;;;;;;;;;;5026941;28;20033;-51
2023/01/18 07:21:45;;;;;;;8.23;7.72;;;;;;;;;;5027960;28;20107;-54
2023/01/18 07:24:10;;;;;;;7.97;7.47;;;;;;;;;;5028692;28;20067;-54
2023/01/18 07:26:35;;;;;;;7.50;7.00;;;;;;;;;;5023058;28;20076;-54
2023/01/18 07:29:01;;;;;;;7.95;7.45;;;;;;;;;;5027482;28;20345;-54
2023/01/18 07:31:27;;;;;;;8.73;8.13;;;;;;;;;;5028141;28;20076;-55
2023/01/18 07:33:52;;;;;;;7.80;7.30;;;;;;;;;;5026851;28;20033;-53
2023/01/18 07:36:19;;;;;;;8.10;7.60;;;;;;;;;;5028375;28;20112;-54
2023/01/18 07:38:46;;;;;;;11.32;10.18;;;;;;;;;;5026439;28;20041;-52
2023/01/18 07:41:13;;;;;;;8.07;7.57;;;;;;;;;;5026863;28;20525;-52
2023/01/18 07:43:39;;;;;;;8.13;7.63;;;;;;;;;;5023135;28;20045;-55
2023/01/18 07:46:07;;;;;;;8.35;7.65;;;;;;;;;;5022952;28;20105;-53
2023/01/18 07:48:33;;;;;;;8.50;7.90;;;;;;;;;;5025170;28;20087;-54
2023/01/18 07:51:02;;;;;;;8.50;7.97;;;;;;;;;;5023258;28;20025;-54
2023/01/18 07:53:29;;;;;;;8.20;7.40;;;;;;;;;;5025555;28;20586;-53
2023/01/18 07:55:58;;;;;;;8.77;8.18;;;;;;;;;;5024832;28;20049;-51
2023/01/18 07:58:24;;;;;;;7.80;7.30;;;;;;;;;;5023780;28;20045;-52
2023/01/18 08:00:49;;;;;;;8.13;7.63;;;;;;;;;;5025702;28;20037;-53
2023/01/18 08:03:16;;;;;;;8.52;7.93;;;;;;;;;;5026252;28;20422;-53
2023/01/18 08:05:43;;;;;;;7.85;7.28;;;;;;;;;;5025983;28;20403;-52
2023/01/18 08:08:10;;;;;;;9.35;8.70;;;;;;;;;;5024935;28;20040;-53
2023/01/18 08:10:37;;;;;;;8.50;7.90;;;;;;;;;;5021678;28;20033;-55
2023/01/18 08:13:03;;;;;;;8.63;8.02;;;;;;;;;;5026103;28;20021;-54
2023/01/18 08:15:28;;;;;;;8.18;7.68;;;;;;;;;;5025359;28;20033;-54
2023/01/18 08:17:54;;;;;;;8.52;7.95;;;;;;;;;;5025591;28;20134;-53
2023/01/18 08:20:20;;;;;;;8.25;7.70;;;;;;;;;;5025966;28;20051;-53
2023/01/18 08:22:46;;;;;;;7.70;7.20;;;;;;;;;;5026348;28;20040;-56
2023/01/18 08:25:12;;;;;;;8.73;8.13;;;;;;;;;;5008351;28;20501;-56
2023/01/18 08:27:37;;;;;;;14.18;8.90;;;;;;;;;;5025998;28;20136;-56
2023/01/18 08:30:04;;;;;;;8.50;7.90;;;;;;;;;;5025485;28;20039;-56
2023/01/18 08:32:30;;;;;;;9.15;8.55;;;;;;;;;;5025937;28;20359;-57
2023/01/18 08:34:55;;;;;;;8.98;8.38;;;;;;;;;;5024277;28;20044;-56
2023/01/18 08:37:22;;;;;;;9.15;8.55;;;;;;;;;;5026323;28;20025;-56
2023/01/18 08:39:48;;;;;;;8.20;7.70;;;;;;;;;;5025356;28;20034;-56
2023/01/18 08:42:14;;;;;;;8.82;8.25;;;;;;;;;;5026845;28;20156;-54
2023/01/18 08:44:40;;;;;;;9.35;8.75;;;;;;;;;;5025327;28;20021;-56
2023/01/18 08:47:05;;;;;;;9.57;8.98;;;;;;;;;;5025582;28;20037;-55
2023/01/18 08:49:31;;;;;;;9.20;8.60;;;;;;;;;;5024978;28;21225;-51
2023/01/18 08:51:57;;;;;;;9.30;8.70;;;;;;;;;;5024658;28;20041;-54
2023/01/18 08:54:23;;;;;;;9.15;8.55;;;;;;;;;;5025136;28;20037;-56
2023/01/18 08:56:50;;;;;;;9.77;9.07;;;;;;;;;;5025311;28;20579;-54
2023/01/18 08:59:15;;;;;;;8.63;8.13;;;;;;;;;;5025739;28;20033;-54
2023/01/18 09:01:41;;;;;;;9.73;9.13;;;;;;;;;;5023667;28;20048;-56
2023/01/18 09:04:06;;;;;;;9.95;9.27;;;;;;;;;;5024630;28;20692;-54
2023/01/18 09:06:32;;;;;;;9.30;8.70;;;;;;;;;;5025873;28;20052;-53
2023/01/18 09:08:58;;;;;;;8.60;8.07;;;;;;;;;;5025322;28;20033;-53
2023/01/18 09:11:23;;;;;;;9.35;8.75;;;;;;;;;;5025557;28;20040;-52
2023/01/18 09:13:54;;;;;;;9.40;8.77;;;;;;;;;;5023828;28;20033;-54
2023/01/18 09:16:20;;;;;;;8.70;8.10;;;;;;;;;;5023858;28;20470;-53
2023/01/18 09:18:45;;;;;;;8.52;8.02;;;;;;;;;;5023741;28;20048;-55
2023/01/18 09:21:12;;;;;;;9.65;9.05;;;;;;;;;;5025820;28;20033;-55
2023/01/18 09:23:38;;;;;;;9.07;8.48;;;;;;;;;;5037530;28;20543;-53
2023/01/18 09:26:11;;;;;;;10.05;9.35;;;;;;;;;;5026706;28;20210;-53
2023/01/18 09:28:37;;;;;;;9.10;8.50;;;;;;;;;;5023938;28;20037;-55
2023/01/18 09:31:08;;;;;;;9.70;9.10;;;;;;;;;;5024940;28;20478;-55
2023/01/18 09:33:34;;;;;;;8.82;8.23;;;;;;;;;;5025532;28;20455;-53
2023/01/18 09:36:06;;;;;;;9.55;8.90;;;;;;;;;;5025755;28;20072;-54
2023/01/18 09:38:33;;;;;;;9.50;8.70;;;;;;;;;;5026136;28;20045;-54
2023/01/18 09:40:59;;;;;;;9.07;8.48;;;;;;;;;;5024346;28;20053;-52
2023/01/18 09:43:33;;;;;;;8.95;8.35;;;;;;;;;;5025784;28;20063;-54
2023/01/18 09:46:00;;;;;;;8.70;8.10;;;;;;;;;;5025519;28;20042;-53
2023/01/18 09:48:32;;;;;;;8.52;7.97;;;;;;;;;;5024543;28;20102;-54
2023/01/18 09:50:59;;;;;;;;;;;;;;;;;;5025161;28;20040;-52
2023/01/18 09:53:49;;;;;;;8.23;7.72;;;;;;;;;;5026074;28;20343;-54
2023/01/18 09:56:22;;;;;;;9.40;8.70;;;;;;;;;;5025885;28;20041;-55
2023/01/18 09:59:14;;;;;;;10.85;8.80;;;;;;;;;;5022877;28;20056;-55
2023/01/18 10:01:40;;;;;;;9.52;8.93;;;;;;;;;;5022904;28;20463;-52
2023/01/18 10:04:24;;;;;;;9.10;8.50;;;;;;;;;;5023456;28;20132;-54
2023/01/18 10:06:57;;;;;;;8.82;8.23;;;;;;;;;;5025129;28;20064;-52
2023/01/18 10:09:32;;;;;;;9.35;8.75;;;;;;;;;;5019310;28;20049;-56
2023/01/18 10:12:05;;;;;;;10.40;9.80;;;;;;;;;;5024123;28;20034;-54
2023/01/18 10:14:57;;;;;;;11.32;10.60;;;;;;;;;;5022767;28;20030;-54
2023/01/18 10:17:32;;;;;;;;;;;;;;;;;;5024256;28;20041;-55
2023/01/18 10:20:00;;;;;;;11.10;10.40;;;;;;;;;;5023094;28;19916;-54
2023/01/18 10:22:31;;;;;;;13.50;12.63;;;;;;;;;;5022071;28;20140;-56
2023/01/18 10:25:02;;;;;;;12.50;11.80;;;;;;;;;;5023150;28;20037;-55
2023/01/18 10:27:46;;;;;;;12.48;11.77;;;;;;;;;;5022809;28;20060;-55
2023/01/18 10:30:36;;;;;;;13.65;12.50;;;;;;;;;;5024879;28;20033;-54
2023/01/18 10:33:17;;;;;;;13.70;12.48;;;;;;;;;;5024078;28;20038;-54
2023/01/18 10:35:47;;;;;;;12.60;11.88;;;;;;;;;;5022981;28;20448;-55
2023/01/18 10:38:16;;;;;;;11.60;10.90;;;;;;;;;;5024398;28;20148;-54
2023/01/18 10:40:49;;;;;;;12.27;11.55;;;;;;;;;;5022073;28;20033;-55
2023/01/18 10:43:19;;;;;;;11.82;11.05;;;;;;;;;;5023229;28;20435;-51
2023/01/18 10:45:44;;;;;;;11.00;10.32;;;;;;;;;;5023111;28;20072;-54
2023/01/18 10:48:26;;;;;;;10.98;10.27;;;;;;;;;;5023023;28;20026;-51
2023/01/18 10:51:04;;;;;;;10.80;10.13;;;;;;;;;;5022414;28;20041;-53
2023/01/18 10:53:32;;;;;;;20.35;10.05;;;;;;;;;;5022552;28;20041;-50
2023/01/18 10:56:03;;;;;;;10.18;9.57;;;;;;;;;;5021069;28;20045;-56
2023/01/18 10:58:50;;;;;;;9.80;9.20;;;;;;;;;;5023357;28;20570;-55
2023/01/18 11:01:23;;;;;;;9.50;8.90;;;;;;;;;;5021611;28;20395;-52
2023/01/18 11:03:52;;;;;;;9.88;9.27;;;;;;;;;;5021917;28;20511;-52
2023/01/18 11:06:19;;;;;;;10.63;10.00;;;;;;;;;;5022406;28;20187;-54
2023/01/18 11:08:46;;;;;;;10.10;9.50;;;;;;;;;;5023801;28;20056;-54
2023/01/18 11:11:23;;;;;;;10.98;10.27;;;;;;;;;;5021843;28;20524;-54
2023/01/18 11:13:49;;;;;;;12.85;12.10;;;;;;;;;;5023271;28;20128;-55
2023/01/18 11:16:19;;;;;;;12.70;11.68;;;;;;;;;;5022722;28;20107;-53
2023/01/18 11:18:57;;;;;;;11.40;10.70;;;;;;;;;;5023306;28;20064;-54
2023/01/18 11:21:24;;;;;;;12.02;11.32;;;;;;;;;;5023064;28;20034;-52
2023/01/18 11:23:50;;;;;;;13.05;12.25;;;;;;;;;;5021686;28;20044;-54
2023/01/18 11:26:19;;;;;;;12.88;12.07;;;;;;;;;;5023610;28;20060;-55
2023/01/18 11:29:03;;;;;;;11.38;10.68;;;;;;;;;;5023893;28;20033;-53
2023/01/18 11:31:51;;;;;;;12.30;11.52;;;;;;;;;;5022673;28;20037;-53
2023/01/18 11:34:40;;;;;;;11.82;11.13;;;;;;;;;;5020368;28;20033;-51
2023/01/18 11:37:38;;;;;;;12.10;11.40;;;;;;;;;;5022085;28;20040;-52
2023/01/18 11:40:19;;;;;;;11.82;11.13;;;;;;;;;;5023820;28;20067;-53
2023/01/18 11:42:45;;;;;;;12.00;11.20;;;;;;;;;;5026076;28;20041;-51
2023/01/18 11:45:19;;;;;;;12.80;12.02;;;;;;;;;;5027438;28;20033;-54
2023/01/18 11:47:56;;;;;;;12.32;11.63;;;;;;;;;;5027890;28;20091;-53
2023/01/18 11:50:27;;;;;;;11.77;11.07;;;;;;;;;;5026481;28;20065;-54
2023/01/18 11:53:30;;;;;;;12.15;11.45;;;;;;;;;;5024263;28;20041;-57
2023/01/18 11:56:19;;;;;;;13.70;12.90;;;;;;;;;;5026736;28;20485;-56
2023/01/18 11:58:45;;;;;;;13.63;12.35;;;;;;;;;;5028309;28;20051;-56
2023/01/18 12:01:29;;;;;;;12.75;11.95;;;;;;;;;;5024409;28;20051;-56
2023/01/18 12:04:31;;;;;;;12.70;11.68;;;;;;;;;;5026382;28;20470;-56
2023/01/18 12:07:17;;;;;;;12.48;11.77;;;;;;;;;;5023654;28;20041;-56
2023/01/18 12:09:51;;;;;;;11.77;11.07;;;;;;;;;;5025110;28;20107;-57
2023/01/18 12:12:46;;;;;;;11.60;10.90;;;;;;;;;;5026317;28;20408;-56
2023/01/18 12:15:42;;;;;;;12.18;11.48;;;;;;;;;;5036778;28;20071;-56
2023/01/18 12:18:20;;;;;;;11.68;10.98;;;;;;;;;;5025001;28;22643;-55
2023/01/18 12:21:13;;;;;;;12.95;12.15;;;;;;;;;;5023669;28;20037;-53
2023/01/18 12:24:11;;;;;;;12.48;11.77;;;;;;;;;;5025126;28;20420;-54
2023/01/18 12:26:59;;;;;;;12.23;11.43;;;;;;;;;;5027097;28;20053;-55
2023/01/18 12:29:27;;;;;;;12.43;11.73;;;;;;;;;;5024440;28;20033;-54
2023/01/18 12:32:26;;;;;;;12.93;12.00;;;;;;;;;;5021727;28;20072;-54
2023/01/18 12:35:03;;;;;;;12.55;11.82;;;;;;;;;;5024875;28;20707;-54
2023/01/18 12:37:39;;;;;;;14.63;13.80;;;;;;;;;;5025648;28;20534;-53
2023/01/18 12:40:38;;;;;;;14.02;13.10;;;;;;;;;;5024090;28;20041;-55
2023/01/18 12:43:13;;;;;;;14.10;13.30;;;;;;;;;;5024762;28;20053;-56
2023/01/18 12:45:47;;;;;;;15.50;12.93;;;;;;;;;;5024298;28;20087;-54
2023/01/18 12:48:23;;;;;;;12.93;12.13;;;;;;;;;;5025552;28;20040;-56
2023/01/18 12:50:49;;;;;;;12.85;12.05;;;;;;;;;;5022971;28;20124;-55
2023/01/18 12:53:44;;;;;;;12.77;12.00;;;;;;;;;;5019842;28;20475;-54
2023/01/18 12:56:21;;;;;;;12.13;11.43;;;;;;;;;;5016141;28;20064;-52
2023/01/18 12:58:56;;;;;;;11.65;10.85;;;;;;;;;;5026036;28;20111;-53
2023/01/18 13:01:27;;;;;;;10.15;9.45;;;;;;;;;;5025699;28;20044;-55
2023/01/18 13:03:59;;;;;;;11.15;9.73;;;;;;;;;;5025424;28;20040;-51
2023/01/18 13:06:25;;;;;;;9.77;9.13;;;;;;;;;;5041769;28;20042;-53
2023/01/18 13:08:59;;;;;;;11.05;10.13;;;;;;;;;;5024001;28;20493;-56
2023/01/18 13:11:30;;;;;;;10.80;10.10;;;;;;;;;;5026292;28;20490;-53
2023/01/18 13:14:13;;;;;;;10.13;9.50;;;;;;;;;;5026616;28;20576;-51
2023/01/18 13:17:00;;;;;;;11.27;9.90;;;;;;;;;;5026577;28;20053;-52
2023/01/18 13:19:40;;;;;;;11.05;10.02;;;;;;;;;;5000261;28;20043;-53
2023/01/18 13:22:05;;;;;;;10.25;9.65;;;;;;;;;;5002693;28;20195;-53
2023/01/18 13:24:43;;;;;;;11.18;10.48;;;;;;;;;;5025461;28;20033;-55
2023/01/18 13:27:11;;;;;;;9.70;9.10;;;;;;;;;;5023838;28;20059;-54
2023/01/18 13:29:37;;;;;;;11.07;10.38;;;;;;;;;;5025546;28;20045;-52
2023/01/18 13:32:22;;;;;;;12.15;10.52;;;;;;;;;;5025757;28;20072;-54
2023/01/18 13:34:56;;;;;;;10.10;9.40;;;;;;;;;;5009222;28;20037;-55
2023/01/18 13:37:39;;;;;;;9.80;9.20;;;;;;;;;;5024189;28;20032;-54
2023/01/18 13:40:05;;;;;;;9.98;9.30;;;;;;;;;;5025040;28;20067;-51
2023/01/18 13:42:36;;;;;;;11.10;10.40;;;;;;;;;;5025030;28;20128;-50
2023/01/18 13:45:23;;;;;;;10.65;9.95;;;;;;;;;;5034163;28;20038;-51
2023/01/18 13:47:50;;;;;;;10.43;9.73;;;;;;;;;;5026194;28;20467;-54
2023/01/18 13:50:39;;;;;;;10.80;10.10;;;;;;;;;;5024542;28;20046;-54
2023/01/18 13:53:14;;;;;;;10.57;9.88;;;;;;;;;;5025554;28;20096;-55
2023/01/18 13:55:44;;;;;;;10.95;10.25;;;;;;;;;;5026422;28;20477;-54
2023/01/18 13:58:30;;;;;;;11.32;10.60;;;;;;;;;;5025129;28;20178;-54
2023/01/18 14:01:02;;;;;;;10.88;10.18;;;;;;;;;;5024323;28;20478;-54
2023/01/18 14:03:29;;;;;;;;;;;;;;;;;;5025328;28;20132;-50
2023/01/18 14:05:56;;;;;;;9.63;9.02;;;;;;;;;;5024344;28;20262;-54
2023/01/18 14:08:31;;;;;;;10.20;9.50;;;;;;;;;;5024811;28;20033;-55
2023/01/18 14:11:09;;;;;;;9.93;9.23;;;;;;;;;;5023492;28;20063;-55
2023/01/18 14:13:43;;;;;;;10.57;9.85;;;;;;;;;;5024477;28;20037;-54
2023/01/18 14:16:30;;;;;;;9.32;8.73;;;;;;;;;;5023379;28;20487;-55
2023/01/18 14:19:09;;;;;;;9.40;8.80;;;;;;;;;;5022421;28;20060;-53
2023/01/18 14:22:06;;;;;;;9.43;8.82;;;;;;;;;;5025521;28;20037;-55
2023/01/18 14:24:58;;;;;;;11.23;10.52;;;;;;;;;;5024019;28;20037;-54
2023/01/18 14:27:31;;;;;;;10.65;10.02;;;;;;;;;;5025177;28;20033;-52
2023/01/18 14:30:36;;;;;;;11.05;10.35;;;;;;;;;;5024096;28;20049;-54
2023/01/18 14:33:26;;;;;;;10.05;9.43;;;;;;;;;;5019783;28;20087;-53
2023/01/18 14:35:53;;;;;;;11.25;10.35;;;;;;;;;;5025873;28;20044;-52
2023/01/18 14:38:19;;;;;;;10.55;9.90;;;;;;;;;;5025021;28;20434;-57
2023/01/18 14:40:50;;;;;;;10.40;9.70;;;;;;;;;;5023803;28;20073;-55
2023/01/18 14:43:31;;;;;;;11.23;9.60;;;;;;;;;;5024637;28;20030;-56
2023/01/18 14:45:59;;;;;;;9.32;8.73;;;;;;;;;;5023843;28;20033;-54
2023/01/18 14:48:26;;;;;;;10.65;9.95;;;;;;;;;;5022357;28;20041;-55
2023/01/18 14:50:54;;;;;;;10.00;9.38;;;;;;;;;;5024300;28;20114;-53
2023/01/18 14:53:27;;;;;;;10.73;9.98;;;;;;;;;;5023604;28;20026;-55
2023/01/18 14:56:13;;;;;;;9.95;9.35;;;;;;;;;;5025306;28;20044;-53
2023/01/18 14:59:15;;;;;;;11.10;10.38;;;;;;;;;;5023952;28;20119;-55
2023/01/18 15:01:42;;;;;;;10.55;9.85;;;;;;;;;;5021432;28;20114;-54
2023/01/18 15:04:22;;;;;;;11.02;10.02;;;;;;;;;;5024808;28;20356;-55
2023/01/18 15:07:02;;;;;;;10.10;9.45;;;;;;;;;;5025409;28;20099;-52
2023/01/18 15:09:31;;;;;;;11.10;10.38;;;;;;;;;;5023832;28;20069;-56
2023/01/18 15:11:59;;;;;;;11.63;10.93;;;;;;;;;;5023893;28;20056;-52
2023/01/18 15:14:31;;;;;;;9.50;8.90;;;;;;;;;;5023149;28;20068;-54
2023/01/18 15:16:57;;;;;;;10.02;9.38;;;;;;;;;;5027497;28;20042;-55
2023/01/18 15:19:28;;;;;;;10.60;9.98;;;;;;;;;;5025728;28;20438;-57
2023/01/18 15:21:57;;;;;;;;;;;;;;;;;;5027569;28;20075;-54
2023/01/18 15:24:23;;;;;;;10.95;10.13;;;;;;;;;;5026549;28;19925;-54
2023/01/18 15:27:00;;;;;;;10.25;9.65;;;;;;;;;;5026592;28;20064;-56
2023/01/18 15:29:30;;;;;;;10.52;9.82;;;;;;;;;;5027474;28;20044;-54
2023/01/18 15:31:58;;;;;;;11.05;10.35;;;;;;;;;;5026792;28;20041;-54
2023/01/18 15:34:28;;;;;;;11.02;10.32;;;;;;;;;;5027741;28;20136;-56
2023/01/18 15:36:56;;;;;;;10.80;10.10;;;;;;;;;;5027677;28;20099;-56